createdAt,value
2023-01-25T00:00:43.886Z,344.03
2023-01-25T00:05:50.620Z,375.80
2023-01-25T00:10:58.507Z,523.63
2023-01-25T00:16:07.263Z,506.63
2023-01-25T00:21:22.792Z,542.17
2023-01-25T00:26:31.375Z,380.50
2023-01-25T00:31:57.289Z,338.20
2023-01-25T00:37:23.672Z,426.03
2023-01-25T00:42:30.641Z,528.07
2023-01-25T00:47:37.299Z,389.60
2023-01-25T00:52:44.069Z,454.17
2023-01-25T00:57:50.870Z,371.83
2023-01-25T01:02:58.575Z,369.17
2023-01-25T01:08:06.513Z,315.03
2023-01-25T01:13:13.505Z,273.07
2023-01-25T01:18:20.857Z,271.10
2023-01-25T01:23:27.678Z,298.87
2023-01-25T01:28:38.833Z,177.10
2023-01-25T01:33:45.759Z,220.33
2023-01-25T01:38:52.648Z,177.63
2023-01-25T01:43:59.763Z,152.20
2023-01-25T01:49:25.814Z,193.13
2023-01-25T01:54:39.070Z,608.97
2023-01-25T01:59:55.863Z,385.07
2023-01-25T02:05:07.013Z,285.53
2023-01-25T02:10:15.537Z,369.60
2023-01-25T02:15:22.892Z,532.13
2023-01-25T02:20:52.164Z,548.70
2023-01-25T02:26:04.790Z,622.17
2023-01-25T02:31:11.857Z,472.83
2023-01-25T02:36:28.575Z,357.73
2023-01-25T02:41:41.876Z,371.30
2023-01-25T02:46:48.872Z,276.73
2023-01-25T02:51:59.115Z,349.83
2023-01-25T02:57:05.836Z,192.50
2023-01-25T03:02:12.500Z,9.47
2023-01-25T03:07:19.102Z,10.40
2023-01-25T03:12:25.890Z,57.30
2023-01-25T03:17:32.584Z,4.80
2023-01-25T03:22:39.267Z,9.07
2023-01-25T03:27:45.954Z,4.07
2023-01-25T03:32:53.197Z,4.70
2023-01-25T03:37:59.885Z,4.80
2023-01-25T03:43:06.568Z,5.67
2023-01-25T03:48:13.305Z,4.90
2023-01-25T03:53:33.264Z,5.33
2023-01-25T03:58:41.344Z,4.67
2023-01-25T04:03:48.151Z,5.53
2023-01-25T04:08:54.863Z,6.47
2023-01-25T04:14:01.580Z,17.03
2023-01-25T04:19:08.163Z,12.83
2023-01-25T04:24:14.869Z,6.33
2023-01-25T04:29:28.693Z,6.10
2023-01-25T04:34:29.935Z,6.93
2023-01-25T04:39:36.589Z,5.90
2023-01-25T04:44:43.291Z,6.87
2023-01-25T04:49:49.967Z,5.03
2023-01-25T04:54:56.635Z,5.23
2023-01-25T05:00:04.491Z,7.83
2023-01-25T05:05:11.890Z,6.10
2023-01-25T05:10:18.723Z,9.43
2023-01-25T05:15:25.382Z,4.70
2023-01-25T05:20:32.168Z,6.40
2023-01-25T05:25:56.356Z,5.10
2023-01-25T05:31:07.385Z,6.40
2023-01-25T05:36:14.074Z,7.10
2023-01-25T05:41:20.851Z,5.17
2023-01-25T05:46:29.391Z,5.30
2023-01-25T05:51:36.128Z,7.37
2023-01-25T05:56:42.888Z,5.53
2023-01-25T06:01:49.552Z,4.87
2023-01-25T06:06:56.676Z,5.43
2023-01-25T06:12:04.348Z,5.10
2023-01-25T06:17:11.635Z,4.93
2023-01-25T06:22:18.487Z,6.80
2023-01-25T06:27:25.219Z,5.53
2023-01-25T06:32:36.247Z,6.10
2023-01-25T06:37:42.952Z,6.70
2023-01-25T06:42:49.759Z,23.53
2023-01-25T06:47:56.478Z,28.23
2023-01-25T06:53:03.123Z,9.10
2023-01-25T06:58:09.835Z,21.57
2023-01-25T07:03:16.518Z,79.90
2023-01-25T07:08:24.951Z,88.03
2023-01-25T07:13:34.141Z,73.27
2023-01-25T07:18:40.814Z,143.73
2023-01-25T07:23:47.533Z,168.63
2023-01-25T07:28:55.323Z,127.50
2023-01-25T07:34:02.029Z,161.00
2023-01-25T07:39:10.446Z,209.20
2023-01-25T07:44:17.133Z,156.20
2023-01-25T07:49:23.935Z,147.60
2023-01-25T07:54:30.569Z,84.17
2023-01-25T07:59:37.282Z,84.43
2023-01-25T08:04:44.828Z,156.23
2023-01-25T08:09:51.625Z,104.80
2023-01-25T08:14:58.336Z,216.97
2023-01-25T08:20:06.334Z,126.17
2023-01-25T08:25:13.480Z,109.23
2023-01-25T08:30:20.404Z,69.40
2023-01-25T08:35:27.547Z,35.37
2023-01-25T08:40:36.989Z,366.57
2023-01-25T08:45:42.411Z,52.27
2023-01-25T08:50:49.700Z,167.10
2023-01-25T08:55:56.373Z,18.47
2023-01-25T09:01:09.273Z,172.00
2023-01-25T09:06:16.752Z,57.37
2023-01-25T09:11:24.939Z,76.20
2023-01-25T09:16:32.209Z,363.17
2023-01-25T09:21:38.884Z,288.50
2023-01-25T09:26:55.758Z,368.73
2023-01-25T09:31:54.008Z,254.73
2023-01-25T09:37:00.718Z,395.67
2023-01-25T09:42:33.044Z,407.67
2023-01-25T09:47:59.514Z,413.37
2023-01-25T09:53:35.391Z,415.70
2023-01-25T09:58:46.012Z,467.90
2023-01-25T10:04:17.657Z,417.13
2023-01-25T10:09:45.405Z,485.30
2023-01-25T10:14:53.064Z,394.07
2023-01-25T10:20:25.230Z,524.27
2023-01-25T10:25:39.239Z,420.13
2023-01-25T10:31:20.217Z,382.30
2023-01-25T10:36:31.547Z,344.20
2023-01-25T10:42:02.948Z,357.33
2023-01-25T10:47:29.349Z,386.37
2023-01-25T10:52:39.156Z,400.17
2023-01-25T10:57:51.879Z,408.60
2023-01-25T11:02:58.631Z,340.40
2023-01-25T11:08:38.155Z,69.43
2023-01-25T11:13:45.250Z,106.43
2023-01-25T11:18:55.478Z,101.33
2023-01-25T11:24:12.498Z,166.07
2023-01-25T11:29:24.340Z,155.73
2023-01-25T11:34:32.478Z,71.80
2023-01-25T11:39:52.346Z,31.60
2023-01-25T11:45:18.384Z,34.13
2023-01-25T11:50:39.202Z,468.70
2023-01-25T11:56:11.158Z,230.93
2023-01-25T12:01:41.520Z,60.10
2023-01-25T12:07:10.809Z,169.57
2023-01-25T12:12:42.538Z,144.83
2023-01-25T12:18:30.747Z,43.27
2023-01-25T12:23:50.658Z,79.03
2023-01-25T12:29:07.429Z,29.17
2023-01-25T12:34:37.122Z,28.47
2023-01-25T12:40:05.868Z,15.60
2023-01-25T12:45:22.813Z,18.07
2023-01-25T12:50:46.020Z,17.17
2023-01-25T12:55:53.924Z,19.80
2023-01-25T13:01:24.221Z,17.03
2023-01-25T13:06:53.800Z,13.23
2023-01-25T13:12:01.011Z,14.20
2023-01-25T13:17:34.791Z,14.13
2023-01-25T13:22:55.281Z,15.77
2023-01-25T13:28:22.358Z,13.87
2023-01-25T13:33:37.002Z,15.17
2023-01-25T13:38:43.747Z,21.30
2023-01-25T13:43:54.174Z,13.57
2023-01-25T13:49:04.568Z,13.80
2023-01-25T13:54:15.691Z,19.37
2023-01-25T13:59:29.982Z,16.70
2023-01-25T14:04:36.791Z,19.63
2023-01-25T14:09:45.493Z,34.80
2023-01-25T14:14:52.199Z,19.67
2023-01-25T14:19:58.983Z,18.50
2023-01-25T14:25:25.207Z,19.13
2023-01-25T14:30:34.692Z,17.80
2023-01-25T14:35:54.637Z,15.50
2023-01-25T14:41:11.475Z,15.07
2023-01-25T14:46:30.860Z,16.30
2023-01-25T14:51:58.503Z,14.53
2023-01-25T14:57:08.289Z,13.83
2023-01-25T15:02:22.121Z,15.03
2023-01-25T15:07:50.741Z,16.63
2023-01-25T15:13:16.897Z,15.27
2023-01-25T15:18:51.982Z,18.77
2023-01-25T15:24:05.778Z,17.63
2023-01-25T15:29:21.142Z,16.63
2023-01-25T15:34:33.527Z,17.37
2023-01-25T15:39:40.335Z,15.63
2023-01-25T15:44:46.970Z,16.80
2023-01-25T15:49:54.065Z,18.37
2023-01-25T15:55:02.168Z,18.47
2023-01-25T16:00:18.097Z,17.67
2023-01-25T16:05:25.266Z,19.57
2023-01-25T16:10:33.687Z,19.40
2023-01-25T16:15:43.118Z,20.50
2023-01-25T16:20:50.636Z,20.07
2023-01-25T16:25:58.203Z,23.47
2023-01-25T16:31:05.043Z,23.03
2023-01-25T16:36:21.847Z,23.13
2023-01-25T16:41:28.801Z,21.73
2023-01-25T16:46:36.469Z,20.77
2023-01-25T16:51:44.943Z,228.07
2023-01-25T16:56:54.776Z,97.47
2023-01-25T17:02:01.648Z,21.53
2023-01-25T17:07:10.244Z,18.00
2023-01-25T17:12:17.118Z,16.67
2023-01-25T17:17:24.538Z,15.57
2023-01-25T17:22:33.046Z,17.70
2023-01-25T17:27:39.846Z,16.37
2023-01-25T17:32:46.775Z,30.40
2023-01-25T17:37:56.433Z,64.80
2023-01-25T17:43:03.646Z,171.53
2023-01-25T17:48:11.564Z,45.47
2023-01-25T17:53:18.485Z,176.73
2023-01-25T17:58:25.423Z,126.83
2023-01-25T18:03:34.715Z,71.30
2023-01-25T18:08:43.369Z,28.70
2023-01-25T18:13:57.178Z,14.87
2023-01-25T18:24:36.623Z,339.35
2023-01-25T18:29:59.342Z,612.43
2023-01-25T18:35:06.829Z,279.43
2023-01-25T18:40:15.884Z,57.47
2023-01-25T18:45:24.353Z,37.50
2023-01-25T18:50:31.395Z,17.67
2023-01-25T18:55:39.277Z,63.97
2023-01-25T19:00:45.979Z,345.03
2023-01-25T19:05:56.132Z,140.87
2023-01-25T19:11:09.701Z,189.97
2023-01-25T19:16:20.082Z,182.93
2023-01-25T19:21:28.917Z,185.33
2023-01-25T19:26:36.210Z,55.27
2023-01-25T19:31:43.027Z,50.53
2023-01-25T19:36:54.119Z,313.60
2023-01-25T19:42:00.943Z,739.27
2023-01-25T19:47:07.619Z,417.37
2023-01-25T19:52:14.368Z,689.13
2023-01-25T19:57:21.066Z,599.60
2023-01-25T20:02:28.410Z,586.50
2023-01-25T20:07:35.192Z,629.97
2023-01-25T20:12:41.895Z,270.60
2023-01-25T20:17:48.520Z,288.83
2023-01-25T20:22:56.234Z,701.43
2023-01-25T20:28:03.323Z,681.83
2023-01-25T20:33:10.291Z,666.33
2023-01-25T20:38:17.003Z,558.87
2023-01-25T20:43:23.705Z,426.53
2023-01-25T20:48:36.472Z,136.97
2023-01-25T20:53:44.411Z,218.57
2023-01-25T20:58:53.168Z,440.60
2023-01-25T21:04:00.407Z,641.43
2023-01-25T21:09:07.497Z,284.03
2023-01-25T21:14:14.348Z,257.97
2023-01-25T21:19:20.942Z,341.13
2023-01-25T21:24:27.928Z,156.63
2023-01-25T21:29:35.082Z,155.17
2023-01-25T21:34:42.149Z,36.77
2023-01-25T21:39:49.739Z,62.23
2023-01-25T21:45:13.967Z,19.47
2023-01-25T21:55:43.864Z,28.92
2023-01-25T22:00:50.596Z,42.77
2023-01-25T22:05:57.685Z,49.30
2023-01-25T22:11:07.685Z,17.47
2023-01-25T22:16:15.426Z,17.03
2023-01-25T22:21:30.049Z,20.13
2023-01-25T22:27:02.104Z,20.83
2023-01-25T22:32:08.897Z,310.93
2023-01-25T22:37:15.911Z,320.70
2023-01-25T22:42:22.785Z,18.57
2023-01-25T22:47:29.959Z,18.03
2023-01-25T22:52:37.059Z,17.60
2023-01-25T22:57:43.846Z,25.07
2023-01-25T23:02:50.754Z,89.23
2023-01-25T23:07:57.741Z,16.93
2023-01-25T23:13:04.486Z,67.60
2023-01-25T23:18:29.811Z,26.67
2023-01-25T23:23:37.268Z,18.83
2023-01-25T23:28:46.137Z,42.37
2023-01-25T23:33:56.420Z,254.00
2023-01-25T23:39:04.037Z,315.13
2023-01-25T23:44:11.041Z,126.67
2023-01-25T23:49:18.132Z,180.63
2023-01-25T23:54:26.603Z,432.00
2023-01-25T23:59:35.082Z,174.87
